Time;durP1;ratioP1;P1;durP2;ratioP2;P2;SDS_P1;SDS_P2;PMS_P1;PMS_P2;Temp;Humidity;BMP_temperature;BMP_pressure;BME280_temperature;BME280_humidity;BME280_pressure;Samples;Min_cycle;Max_cycle;Signal;HPM_P1;HPM_P2
2022/03/27 00:02:25;;;;;;;22.87;10.15;;;;;;;10.16;42.65;100709.41;4481619;32;35017;-76
2022/03/27 00:05:12;;;;;;;20.08;10.27;;;;;;;10.30;42.51;100705.00;4482162;32;33818;-76
2022/03/27 00:07:58;;;;;;;24.35;10.70;;;;;;;10.40;42.43;100703.28;4475572;32;34721;-77
2022/03/27 00:13:54;;;;;;;22.85;9.95;;;;;;;10.74;41.65;100701.37;4481688;32;35549;-76
2022/03/27 00:16:40;;;;;;;24.08;10.15;;;;;;;10.44;42.40;100698.84;4480556;32;34714;-76
2022/03/27 00:19:26;;;;;;;24.92;10.25;;;;;;;10.84;41.69;100702.41;4475004;32;35132;-76
2022/03/27 00:22:13;;;;;;;23.33;9.75;;;;;;;10.91;41.44;100708.41;4481734;32;35706;-76
2022/03/27 00:25:00;;;;;;;27.55;10.98;;;;;;;10.42;42.76;100701.09;4480015;32;34940;-76
2022/03/27 00:27:47;;;;;;;26.05;10.23;;;;;;;10.41;43.09;100702.97;4480399;32;34664;-76
2022/03/27 00:30:33;;;;;;;23.02;10.07;;;;;;;10.71;42.48;100712.94;4481769;32;34623;-76
2022/03/27 00:33:19;;;;;;;22.62;9.85;;;;;;;10.77;42.35;100703.56;4481276;32;35018;-76
2022/03/27 00:36:07;;;;;;;22.05;10.90;;;;;;;10.77;42.23;100703.56;4468140;32;34441;-76
2022/03/27 00:38:53;;;;;;;22.08;9.98;;;;;;;10.87;41.78;100707.31;4481776;32;35185;-76
2022/03/27 00:41:40;;;;;;;21.33;10.48;;;;;;;10.73;42.27;100712.63;4480185;32;34249;-76
2022/03/27 00:44:27;;;;;;;20.58;9.70;;;;;;;11.60;40.42;100709.91;4481306;32;35637;-76
2022/03/27 00:47:13;;;;;;;20.70;9.60;;;;;;;11.90;39.67;100706.00;4472029;32;34727;-76
2022/03/27 00:49:59;;;;;;;20.70;10.07;;;;;;;11.95;39.53;100716.09;4469116;32;34395;-76
2022/03/27 00:52:46;;;;;;;21.52;9.82;;;;;;;11.93;39.35;100707.38;4480299;32;35152;-76
2022/03/27 00:55:33;;;;;;;22.50;10.80;;;;;;;11.90;39.67;100713.44;4480452;32;35764;-77
2022/03/27 00:58:19;;;;;;;18.50;9.55;;;;;;;11.97;39.30;100722.13;4481334;32;34604;-76
2022/03/27 01:01:18;;;;;;;21.17;9.88;;;;;;;11.89;39.48;100712.59;4480946;32;35055;-76
2022/03/27 01:04:06;;;;;;;20.12;9.88;;;;;;;11.96;39.25;100715.00;4469096;32;34612;-77
2022/03/27 01:06:53;;;;;;;25.08;11.10;;;;;;;11.13;41.20;100707.94;4481513;32;34913;-77
2022/03/27 01:09:40;;;;;;;19.42;9.50;;;;;;;10.60;42.35;100713.28;4481030;32;35528;-76
2022/03/27 01:12:39;;;;;;;19.80;9.38;;;;;;;9.88;44.03;100717.22;4481261;32;33568;-76
2022/03/27 01:15:29;;;;;;;28.65;10.25;;;;;;;9.74;44.72;100713.44;4479836;32;35054;-76
2022/03/27 01:18:16;;;;;;;21.77;10.57;;;;;;;9.62;45.02;100721.09;4469406;32;35999;-76
2022/03/27 01:21:02;;;;;;;25.88;10.35;;;;;;;10.01;44.53;100720.44;4481242;32;35259;-76
2022/03/27 01:23:49;;;;;;;26.05;9.80;;;;;;;10.29;43.68;100714.28;4481216;32;35116;-77
2022/03/27 01:26:36;;;;;;;22.70;10.27;;;;;;;10.05;43.99;100724.25;4480141;32;34573;-76
2022/03/27 01:29:23;;;;;;;19.33;9.70;;;;;;;9.88;44.32;100719.94;4481000;32;34613;-76
2022/03/27 01:32:11;;;;;;;21.12;10.60;;;;;;;9.61;44.91;100725.78;4467874;32;34631;-76
2022/03/27 01:34:58;;;;;;;26.65;10.48;;;;;;;9.38;45.51;100721.72;4481221;32;34209;-77
2022/03/27 01:37:46;;;;;;;27.80;10.60;;;;;;;9.48;45.31;100720.06;4468836;32;33597;-76
2022/03/27 01:40:33;;;;;;;18.62;10.30;;;;;;;9.27;46.00;100725.56;4480668;32;35723;-76
2022/03/27 01:43:19;;;;;;;24.75;9.95;;;;;;;8.99;46.71;100727.78;4468980;32;34784;-76
2022/03/27 01:46:05;;;;;;;23.87;10.35;;;;;;;8.88;46.91;100728.03;4481062;32;34422;-76
2022/03/27 01:48:52;;;;;;;21.45;10.27;;;;;;;9.34;45.77;100739.78;4477819;32;34161;-76
2022/03/27 01:51:40;;;;;;;25.15;11.63;;;;;;;8.81;47.06;100736.53;4479874;32;34632;-76
2022/03/27 01:54:27;;;;;;;22.58;10.65;;;;;;;8.79;47.29;100749.63;4467690;32;34084;-76
2022/03/27 01:57:13;;;;;;;25.02;11.55;;;;;;;8.71;47.57;100747.47;4480497;32;34165;-76
2022/03/27 01:59:59;;;;;;;25.42;11.43;;;;;;;8.81;47.36;100750.19;4468532;32;35733;-76
2022/03/27 02:02:46;;;;;;;24.33;10.93;;;;;;;8.62;47.75;100751.78;4478596;32;35141;-76
2022/03/27 02:05:32;;;;;;;25.27;10.65;;;;;;;8.56;47.88;100754.50;4481006;32;35250;-76
2022/03/27 02:08:19;;;;;;;25.83;11.12;;;;;;;8.49;48.16;100745.78;4480191;32;34055;-76
2022/03/27 02:11:15;;;;;;;22.45;10.73;;;;;;;8.33;48.58;100746.78;4479483;32;34176;-76
2022/03/27 02:14:02;;;;;;;21.15;10.10;;;;;;;8.37;48.53;100744.34;4478606;32;35618;-76
2022/03/27 02:16:48;;;;;;;24.40;10.85;;;;;;;8.49;48.35;100745.78;4475277;32;35492;-76
2022/03/27 02:19:38;;;;;;;24.60;10.80;;;;;;;8.96;47.32;100743.91;4480776;32;33819;-77
2022/03/27 02:22:24;;;;;;;21.98;10.70;;;;;;;8.76;47.72;100744.72;4480941;32;34651;-76
2022/03/27 02:25:10;;;;;;;25.75;10.95;;;;;;;8.99;47.31;100752.41;4481052;32;34608;-76
2022/03/27 02:27:57;;;;;;;24.80;10.75;;;;;;;8.82;47.41;100751.00;4481053;32;35538;-76
2022/03/27 02:30:44;;;;;;;23.75;10.63;;;;;;;8.54;48.58;100753.97;4472460;32;35053;-76
2022/03/27 02:33:30;;;;;;;24.45;10.50;;;;;;;8.36;49.11;100759.09;4468654;32;35477;-76
2022/03/27 02:36:17;;;;;;;29.35;11.57;;;;;;;8.75;48.44;100751.28;4480771;32;34493;-76
2022/03/27 02:39:04;;;;;;;24.77;11.12;;;;;;;8.77;48.18;100760.84;4480384;32;34882;-76
2022/03/27 02:41:51;;;;;;;27.75;11.45;;;;;;;8.58;48.95;100769.84;4477965;32;34324;-76
2022/03/27 02:44:37;;;;;;;24.63;10.68;;;;;;;8.51;49.26;100765.44;4477701;32;34395;-76
2022/03/27 02:47:23;;;;;;;29.10;10.75;;;;;;;8.68;48.79;100770.69;4475873;32;35008;-76
2022/03/27 02:50:10;;;;;;;27.83;10.98;;;;;;;8.60;49.00;100773.13;4480839;32;35436;-75
2022/03/27 02:53:00;;;;;;;23.98;10.60;;;;;;;8.91;48.26;100777.53;4480349;32;33872;-76
2022/03/27 02:55:46;;;;;;;28.33;11.50;;;;;;;9.20;47.43;100775.09;4456749;32;34589;-76
2022/03/27 02:58:33;;;;;;;22.83;11.40;;;;;;;8.95;48.10;100778.63;4457304;32;34602;-76
2022/03/27 03:01:19;;;;;;;23.35;13.02;;;;;;;8.81;48.55;100776.69;4480700;32;33696;-76
2022/03/27 03:04:06;;;;;;;20.77;10.35;;;;;;;8.84;48.37;100776.97;4480433;32;34253;-76
2022/03/27 03:06:53;;;;;;;25.40;12.37;;;;;;;9.24;47.64;100769.88;4480654;32;34374;-76
2022/03/27 03:09:39;;;;;;;25.45;11.15;;;;;;;9.34;47.13;100764.41;4467609;32;33883;-76
2022/03/27 03:12:26;;;;;;;24.92;11.80;;;;;;;9.27;47.36;100779.44;4467525;32;34780;-77
2022/03/27 03:15:13;;;;;;;25.00;11.55;;;;;;;8.99;48.23;100782.47;4477158;32;35064;-76
2022/03/27 03:17:59;;;;;;;24.00;11.10;;;;;;;8.72;48.82;100785.44;4480417;32;34639;-76
2022/03/27 03:20:46;;;;;;;24.92;11.57;;;;;;;9.08;47.83;100790.09;4468411;32;34579;-76
2022/03/27 03:23:32;;;;;;;26.15;11.52;;;;;;;8.68;48.63;100786.22;4480388;32;35462;-76
2022/03/27 03:26:18;;;;;;;28.80;11.75;;;;;;;9.01;47.88;100802.13;4478925;32;34214;-76
2022/03/27 03:29:05;;;;;;;22.98;10.15;;;;;;;9.20;47.22;100807.09;4479822;32;34617;-76
2022/03/27 03:31:51;;;;;;;22.13;10.63;;;;;;;9.01;47.48;100802.13;4480455;32;36013;-76
2022/03/27 03:34:37;;;;;;;28.58;12.18;;;;;;;9.15;47.53;100812.53;4478412;32;35477;-76
2022/03/27 03:37:24;;;;;;;25.05;12.27;;;;;;;9.04;47.69;100814.44;4467766;32;34030;-76
2022/03/27 03:40:11;;;;;;;23.15;11.75;;;;;;;8.82;48.24;100811.13;4480123;32;34619;-76
2022/03/27 03:42:58;;;;;;;22.92;11.57;;;;;;;8.60;48.91;100817.66;4479631;32;34920;-76
2022/03/27 03:45:46;;;;;;;29.42;11.85;;;;;;;8.91;48.34;100810.34;4479592;32;34617;-76
2022/03/27 03:48:33;;;;;;;21.65;11.15;;;;;;;8.85;48.56;100811.44;4480124;32;34133;-76
2022/03/27 03:51:19;;;;;;;28.58;11.32;;;;;;;8.60;49.42;100820.37;4480078;32;34471;-76
2022/03/27 03:54:08;;;;;;;26.95;11.55;;;;;;;8.62;49.49;100817.38;4480000;32;34857;-76
2022/03/27 03:56:54;;;;;;;27.35;11.60;;;;;;;8.64;49.59;100824.22;4478814;32;35452;-76
2022/03/27 03:59:41;;;;;;;29.10;12.00;;;;;;;8.54;49.75;100832.38;4479997;32;35129;-76
2022/03/27 04:02:27;;;;;;;26.30;11.70;;;;;;;8.59;49.98;100826.91;4466958;32;35467;-76
2022/03/27 04:05:14;;;;;;;24.55;12.43;;;;;;;8.71;49.46;100837.63;4479686;32;35058;-76
2022/03/27 04:08:00;;;;;;;23.48;11.88;;;;;;;8.53;50.45;100841.66;4467504;32;35467;-76
2022/03/27 04:10:47;;;;;;;26.17;11.80;;;;;;;8.38;50.89;100833.37;4466959;32;33653;-76
2022/03/27 04:13:32;;;;;;;23.10;11.23;;;;;;;8.59;50.40;100839.75;4479616;32;34320;-76
2022/03/27 04:16:19;;;;;;;24.95;12.10;;;;;;;8.40;50.95;100853.09;4479536;32;35007;-76
2022/03/27 04:19:05;;;;;;;28.42;12.13;;;;;;;8.54;50.63;100846.87;4479376;32;35546;-77
2022/03/27 04:21:52;;;;;;;23.05;11.80;;;;;;;8.69;50.41;100857.00;4479901;32;34015;-76
2022/03/27 04:24:38;;;;;;;25.35;11.40;;;;;;;8.25;51.73;100853.78;4480407;32;35496;-76
2022/03/27 04:27:24;;;;;;;28.67;12.30;;;;;;;8.61;51.04;100856.72;4478415;32;35024;-76
2022/03/27 04:30:11;;;;;;;22.48;11.00;;;;;;;8.16;52.18;100863.56;4480735;32;34655;-76
2022/03/27 04:32:57;;;;;;;27.73;11.52;;;;;;;8.18;52.38;100872.34;4474782;32;34133;-76
2022/03/27 04:35:44;;;;;;;26.12;11.05;;;;;;;8.67;51.02;100886.50;4478767;32;34591;-76
2022/03/27 04:38:30;;;;;;;25.73;11.45;;;;;;;8.30;52.00;100886.59;4472602;32;35485;-76
2022/03/27 04:41:17;;;;;;;23.70;10.98;;;;;;;8.45;51.94;100899.53;4481700;32;34291;-76
2022/03/27 04:44:04;;;;;;;25.30;12.68;;;;;;;8.84;51.08;100901.87;4469650;32;35202;-76
2022/03/27 04:46:50;;;;;;;25.23;12.23;;;;;;;9.16;50.15;100909.88;4468659;32;32891;-76
2022/03/27 04:49:37;;;;;;;27.70;11.63;;;;;;;9.55;48.87;100920.34;4481695;32;35573;-76
2022/03/27 04:52:24;;;;;;;22.80;11.60;;;;;;;9.52;48.91;100918.16;4481581;32;34632;-76
2022/03/27 04:55:11;;;;;;;22.58;11.15;;;;;;;9.91;48.34;100923.91;4480496;32;33113;-76
2022/03/27 04:57:57;;;;;;;23.70;11.57;;;;;;;10.40;46.92;100926.03;4480276;32;34306;-76
2022/03/27 05:00:45;;;;;;;21.85;11.23;;;;;;;10.11;47.66;100926.59;4480554;32;34925;-76
2022/03/27 05:03:31;;;;;;;25.00;12.75;;;;;;;10.10;47.53;100935.94;4481150;32;34234;-76
2022/03/27 05:06:18;;;;;;;26.87;12.43;;;;;;;9.04;50.82;100939.38;4481406;32;35172;-77
2022/03/27 05:09:04;;;;;;;22.20;11.63;;;;;;;9.10;50.80;100938.31;4480660;32;35657;-76
2022/03/27 05:11:51;;;;;;;24.27;11.93;;;;;;;9.28;50.45;100939.72;4481456;32;36943;-76
2022/03/27 05:14:37;;;;;;;29.70;12.25;;;;;;;10.16;48.21;100944.97;4468297;32;34693;-77
2022/03/27 05:17:24;;;;;;;23.40;11.43;;;;;;;10.62;47.03;100949.53;4476758;32;34152;-76
2022/03/27 05:20:10;;;;;;;29.17;11.38;;;;;;;10.71;46.81;100962.37;4481138;32;35653;-77
2022/03/27 05:22:59;;;;;;;26.80;11.93;;;;;;;10.76;46.86;100965.09;4474273;32;36160;-76
2022/03/27 05:25:48;;;;;;;24.92;12.32;;;;;;;10.71;47.34;100956.06;4469567;32;34939;-76
2022/03/27 05:28:35;;;;;;;27.55;11.80;;;;;;;10.83;46.78;100959.31;4481073;32;34838;-76
2022/03/27 05:31:21;;;;;;;24.85;11.68;;;;;;;10.92;46.68;100954.88;4469037;32;36209;-76
2022/03/27 05:34:07;;;;;;;25.02;12.48;;;;;;;11.06;46.74;100962.50;4475564;32;35693;-76
2022/03/27 05:36:53;;;;;;;25.77;10.38;;;;;;;11.21;46.34;100965.16;4481309;32;34677;-76
2022/03/27 05:39:39;;;;;;;21.37;9.52;;;;;;;10.62;47.27;100974.19;4479885;32;34379;-77
2022/03/27 05:42:26;;;;;;;23.23;10.48;;;;;;;10.59;47.53;100978.31;4480561;32;34655;-76
2022/03/27 05:45:13;;;;;;;20.40;9.05;;;;;;;10.59;47.60;100989.28;4479273;32;36891;-76
2022/03/27 05:48:00;;;;;;;18.45;9.45;;;;;;;10.71;47.51;100988.97;4469051;32;34574;-76
2022/03/27 05:50:46;;;;;;;18.27;9.05;;;;;;;10.71;47.44;100995.28;4469939;32;34145;-76
2022/03/27 05:53:33;;;;;;;21.48;8.90;;;;;;;10.85;47.16;100991.94;4466446;32;35306;-76
2022/03/27 05:56:19;;;;;;;18.35;8.88;;;;;;;10.96;47.12;100993.56;4480860;32;34710;-76
2022/03/27 05:59:05;;;;;;;16.17;8.30;;;;;;;10.69;47.74;100994.72;4480975;32;35290;-76
2022/03/27 06:01:52;;;;;;;18.70;8.60;;;;;;;11.00;46.89;101013.81;4480926;32;34159;-76
2022/03/27 06:04:39;;;;;;;15.45;8.82;;;;;;;11.06;46.90;101012.69;4460516;32;34605;-77
2022/03/27 06:07:25;;;;;;;17.65;9.05;;;;;;;11.45;46.28;101020.19;4481088;32;33938;-77
2022/03/27 06:10:12;;;;;;;14.68;7.93;;;;;;;11.04;46.88;101020.37;4480882;32;34275;-76
2022/03/27 06:12:59;;;;;;;17.40;8.73;;;;;;;11.33;46.03;101033.44;4474226;32;34893;-76
2022/03/27 06:15:46;;;;;;;14.25;7.45;;;;;;;11.31;46.50;101041.94;4469189;32;33404;-77
2022/03/27 06:18:32;;;;;;;14.05;7.47;;;;;;;11.36;46.42;101039.19;4480384;32;35046;-76
2022/03/27 06:21:18;;;;;;;16.10;8.43;;;;;;;11.47;46.42;101039.94;4471274;32;34824;-77
2022/03/27 06:24:05;;;;;;;13.68;7.20;;;;;;;11.48;46.69;101047.06;4480865;32;34377;-77
2022/03/27 06:26:51;;;;;;;16.25;7.68;;;;;;;11.33;46.71;101047.97;4480192;32;34722;-77
2022/03/27 06:29:37;;;;;;;13.90;7.22;;;;;;;11.27;47.68;101051.84;4458680;32;37606;-76
2022/03/27 06:32:26;;;;;;;16.83;7.85;;;;;;;11.41;46.73;101052.03;4479704;32;34603;-76
2022/03/27 06:35:13;;;;;;;15.38;7.53;;;;;;;11.66;46.29;101045.59;4479639;32;34149;-76
2022/03/27 06:37:59;;;;;;;15.30;7.70;;;;;;;11.73;46.34;101043.37;4479531;32;35701;-77
2022/03/27 06:40:46;;;;;;;15.20;8.38;;;;;;;11.78;46.01;101051.56;4466549;32;35823;-76
2022/03/27 06:43:36;;;;;;;18.58;8.80;;;;;;;11.18;47.49;101059.81;4467331;32;35144;-77
2022/03/27 06:46:22;;;;;;;19.67;7.70;;;;;;;11.53;46.57;101058.03;4471615;32;33940;-76
2022/03/27 06:49:08;;;;;;;12.32;7.25;;;;;;;11.86;46.24;101056.47;4467411;32;35617;-76
2022/03/27 06:51:55;;;;;;;13.32;7.62;;;;;;;12.10;45.58;101059.34;4470502;32;34870;-77
2022/03/27 06:54:42;;;;;;;14.73;7.07;;;;;;;11.59;46.90;101056.09;4471059;32;34490;-76
2022/03/27 06:57:29;;;;;;;12.43;6.70;;;;;;;12.10;45.76;101053.84;4468153;32;34231;-76
2022/03/27 07:03:21;;;;;;;12.18;6.78;;;;;;;12.24;45.16;101050.41;4469832;32;35980;-76
2022/03/27 07:06:07;;;;;;;17.35;7.12;;;;;;;11.94;46.08;101055.06;4457379;32;35161;-76
2022/03/27 07:08:54;;;;;;;14.93;7.78;;;;;;;11.66;47.18;101060.13;4479842;32;35041;-76
2022/03/27 07:11:41;;;;;;;12.85;6.82;;;;;;;11.96;45.60;101063.84;4480399;32;34643;-76
2022/03/27 07:14:26;;;;;;;13.95;7.45;;;;;;;10.91;48.54;101070.34;4470980;32;34404;-76
2022/03/27 07:17:17;;;;;;;10.63;6.00;;;;;;;11.76;47.28;101074.94;4479815;32;34486;-76
2022/03/27 07:20:04;;;;;;;13.62;6.85;;;;;;;12.28;46.28;101070.72;4478033;32;34158;-75
2022/03/27 07:22:51;;;;;;;12.13;7.05;;;;;;;12.34;45.67;101069.59;4475973;32;35126;-76
2022/03/27 07:25:39;;;;;;;10.60;6.40;;;;;;;11.43;47.76;101074.53;4467221;32;34738;-75
2022/03/27 07:28:28;;;;;;;13.82;6.22;;;;;;;12.00;46.65;101070.38;4467391;32;34547;-76
2022/03/27 07:31:15;;;;;;;10.90;6.10;;;;;;;12.36;45.90;101070.13;4469848;32;34066;-76
2022/03/27 07:34:02;;;;;;;11.82;6.37;;;;;;;12.34;45.11;101075.88;4479306;32;34291;-75
2022/03/27 07:36:48;;;;;;;13.77;7.53;;;;;;;12.60;45.57;101084.72;4479873;32;34910;-76
2022/03/27 07:39:35;;;;;;;11.68;6.45;;;;;;;12.44;45.29;101079.69;4478886;32;35605;-75
2022/03/27 07:42:24;;;;;;;13.43;6.05;;;;;;;12.60;44.83;101084.72;4477971;32;33602;-76
2022/03/27 07:45:10;;;;;;;12.90;6.65;;;;;;;12.65;45.08;101083.88;4473891;32;34614;-76
2022/03/27 07:48:01;;;;;;;11.65;5.80;;;;;;;12.84;44.80;101086.72;4480298;32;34914;-75
2022/03/27 07:50:54;;;;;;;12.00;6.63;;;;;;;13.03;44.55;101095.88;4474934;32;35185;-75
2022/03/27 07:53:40;;;;;;;12.50;5.75;;;;;;;13.36;43.89;101101.56;4479898;32;34677;-75
2022/03/27 07:56:27;;;;;;;10.95;6.00;;;;;;;13.53;44.55;101089.25;4479958;32;35161;-75
2022/03/27 07:59:13;;;;;;;11.38;5.62;;;;;;;12.97;45.11;101090.69;4482108;32;34882;-75
2022/03/27 08:02:00;;;;;;;12.23;5.87;;;;;;;13.70;43.26;101090.38;4482001;32;34519;-75
2022/03/27 08:04:47;;;;;;;11.82;6.20;;;;;;;13.70;43.20;101090.38;4482078;32;34255;-75
2022/03/27 08:07:34;;;;;;;14.32;6.65;;;;;;;13.60;43.68;101092.44;4482219;32;34659;-75
2022/03/27 08:10:21;;;;;;;13.43;7.20;;;;;;;13.54;43.93;101088.94;4469072;32;35940;-75
2022/03/27 08:13:07;;;;;;;10.55;5.78;;;;;;;13.92;43.04;101092.56;4468747;32;34644;-76
2022/03/27 08:15:54;;;;;;;14.10;5.90;;;;;;;13.77;43.60;101089.19;4474320;32;35153;-76
2022/03/27 08:18:41;;;;;;;16.95;6.65;;;;;;;13.71;43.71;101086.50;4469299;32;34343;-76
2022/03/27 08:21:28;;;;;;;12.52;6.47;;;;;;;13.27;45.44;101087.63;4481967;32;34693;-75
2022/03/27 08:24:14;;;;;;;13.20;6.70;;;;;;;13.49;43.98;101078.84;4476736;32;34561;-75
2022/03/27 08:27:02;;;;;;;12.40;6.43;;;;;;;13.14;45.94;101082.81;4475016;32;35271;-75
2022/03/27 08:29:48;;;;;;;18.48;8.02;;;;;;;13.54;44.36;101074.37;4481878;32;34675;-75
2022/03/27 08:32:35;;;;;;;12.37;6.22;;;;;;;14.00;43.66;101081.97;4463459;32;34835;-76
2022/03/27 08:35:26;;;;;;;15.75;7.12;;;;;;;13.70;44.32;101079.38;4474997;32;34562;-75
2022/03/27 08:38:14;;;;;;;12.95;6.85;;;;;;;14.43;43.47;101073.56;4482032;32;34906;-76
2022/03/27 08:41:01;;;;;;;11.93;6.62;;;;;;;14.41;43.97;101084.91;4469066;32;33511;-76
2022/03/27 08:43:58;;;;;;;12.90;6.45;;;;;;;13.92;43.88;101081.53;4476984;32;34975;-76
2022/03/27 08:46:45;;;;;;;13.82;7.60;;;;;;;13.79;44.45;101076.75;4459641;32;35510;-76
2022/03/27 08:49:40;;;;;;;13.18;6.60;;;;;;;14.18;42.97;101078.41;4471531;32;35162;-75
2022/03/27 08:52:48;;;;;;;11.38;6.60;;;;;;;14.63;42.12;101087.06;4469631;32;34197;-75
2022/03/27 08:55:43;;;;;;;13.90;7.00;;;;;;;14.78;42.02;101077.69;4481331;32;35029;-75
2022/03/27 08:58:47;;;;;;;12.15;6.60;;;;;;;15.14;41.07;101093.53;4468201;32;34614;-75
2022/03/27 09:01:34;;;;;;;12.45;6.75;;;;;;;15.17;40.84;101098.44;4481510;32;35207;-75
2022/03/27 09:04:20;;;;;;;12.50;7.00;;;;;;;15.23;40.09;101098.06;4478854;32;34159;-76
2022/03/27 09:07:06;;;;;;;18.20;7.15;;;;;;;15.29;40.19;101090.50;4463433;32;107989;-76
2022/03/27 09:09:53;;;;;;;14.90;6.82;;;;;;;14.78;41.15;101091.47;4463476;32;34622;-75
2022/03/27 09:12:40;;;;;;;11.75;7.05;;;;;;;14.74;41.32;101094.03;4463361;32;35297;-75
2022/03/27 09:15:26;;;;;;;18.33;7.40;;;;;;;14.38;41.74;101094.59;4480481;32;34690;-76
2022/03/27 09:18:14;;;;;;;18.15;6.87;;;;;;;14.80;41.72;101095.56;4468302;32;35885;-76
2022/03/27 09:21:01;;;;;;;13.38;7.12;;;;;;;14.87;40.87;101094.34;4462308;32;35086;-75
2022/03/27 09:24:02;;;;;;;16.15;7.07;;;;;;;15.51;40.67;101095.25;4480264;32;33853;-75
2022/03/27 09:27:00;;;;;;;16.15;6.68;;;;;;;15.83;39.52;101096.28;4460430;32;34653;-75
2022/03/27 09:29:58;;;;;;;22.13;7.70;;;;;;;16.31;38.63;101095.72;4475364;32;35892;-75
2022/03/27 09:32:45;;;;;;;14.73;7.12;;;;;;;16.44;38.33;101097.59;4479966;32;34533;-75
2022/03/27 09:35:33;;;;;;;15.65;7.30;;;;;;;16.87;37.17;101092.31;4475019;32;34945;-75
2022/03/27 09:38:21;;;;;;;12.73;7.25;;;;;;;15.08;39.91;101090.06;4473963;32;33386;-75
2022/03/27 09:41:29;;;;;;;13.13;6.80;;;;;;;14.95;40.43;101085.38;4459366;32;35897;-75
2022/03/27 09:44:36;;;;;;;15.15;7.07;;;;;;;15.92;38.27;101086.12;4473470;32;35763;-75
2022/03/27 09:47:24;;;;;;;13.40;8.40;;;;;;;14.85;40.30;101089.94;4480225;32;33968;-74
2022/03/27 09:50:34;;;;;;;17.17;7.30;;;;;;;15.88;38.16;101085.09;4472344;32;34625;-75
2022/03/27 09:53:25;;;;;;;12.63;6.47;;;;;;;16.94;37.06;101091.88;4462448;32;34901;-75
2022/03/27 09:56:14;;;;;;;18.52;7.25;;;;;;;17.06;35.90;101083.78;4480543;32;34176;-75
2022/03/27 09:59:01;;;;;;;13.75;7.00;;;;;;;16.73;36.10;101083.28;4474125;32;34146;-75
2022/03/27 10:01:47;;;;;;;13.27;7.47;;;;;;;16.19;37.04;101085.19;4471188;32;34665;-75
2022/03/27 10:04:50;;;;;;;12.98;6.37;;;;;;;15.85;37.60;101082.94;4480737;32;35051;-75
2022/03/27 10:07:38;;;;;;;18.12;8.20;;;;;;;17.86;35.22;101071.78;4468891;32;34649;-75
2022/03/27 10:10:26;;;;;;;15.05;7.03;;;;;;;17.62;34.17;101075.81;4480788;32;34433;-75
2022/03/27 10:13:12;;;;;;;13.75;6.47;;;;;;;18.13;34.34;101068.69;4462835;32;34328;-75
2022/03/27 10:15:59;;;;;;;16.75;7.10;;;;;;;18.92;33.49;101076.88;4470753;32;34939;-75
2022/03/27 10:18:46;;;;;;;13.88;6.75;;;;;;;18.89;32.08;101070.03;4457129;32;35070;-75
2022/03/27 10:21:33;;;;;;;10.55;6.75;;;;;;;19.25;31.71;101075.09;4480831;32;34256;-75
2022/03/27 10:24:21;;;;;;;15.90;7.43;;;;;;;19.82;31.08;101071.00;4470627;32;35577;-75
2022/03/27 10:27:08;;;;;;;15.23;8.15;;;;;;;19.48;31.12;101069.25;4456721;32;34001;-76
2022/03/27 10:29:54;;;;;;;12.20;6.82;;;;;;;19.89;29.53;101070.47;4448247;32;34571;-75
2022/03/27 10:32:42;;;;;;;10.80;6.87;;;;;;;18.78;31.47;101068.75;4480018;32;36510;-76
2022/03/27 10:35:56;;;;;;;14.25;7.47;;;;;;;19.77;30.19;101066.47;4463605;32;35477;-75
2022/03/27 10:39:20;;;;;;;13.45;7.03;;;;;;;19.45;30.69;101059.63;4480005;32;34734;-76
2022/03/27 10:42:15;;;;;;;11.12;6.60;;;;;;;19.23;31.85;101071.03;4470563;32;34316;-75
2022/03/27 10:45:13;;;;;;;12.23;6.93;;;;;;;19.67;30.32;101064.09;4468737;32;34994;-75
2022/03/27 10:48:10;;;;;;;16.65;7.32;;;;;;;19.62;30.05;101058.69;4458093;32;33210;-75
2022/03/27 10:50:57;;;;;;;15.15;7.03;;;;;;;20.31;29.77;101059.31;4458272;32;34835;-75
2022/03/27 10:54:01;;;;;;;14.07;7.47;;;;;;;20.44;29.66;101066.56;4480618;32;34663;-76
2022/03/27 10:56:54;;;;;;;13.10;7.72;;;;;;;19.96;28.95;101065.19;4478288;32;33715;-76
2022/03/27 10:59:43;;;;;;;11.15;6.28;;;;;;;20.49;27.91;101060.78;4479580;32;34134;-75
2022/03/27 11:02:45;;;;;;;14.35;7.70;;;;;;;20.35;29.63;101061.06;4476895;32;36241;-75
2022/03/27 11:05:35;;;;;;;17.40;7.72;;;;;;;19.20;29.74;101050.28;4479846;32;34780;-75
2022/03/27 11:08:22;;;;;;;13.85;7.75;;;;;;;19.85;28.96;101052.84;4468535;32;35071;-75
2022/03/27 11:11:11;;;;;;;14.70;7.40;;;;;;;18.66;31.30;101039.69;4479661;32;34286;-75
2022/03/27 11:13:58;;;;;;;12.02;6.95;;;;;;;20.97;28.19;101036.16;4458919;32;35543;-75
2022/03/27 11:17:03;;;;;;;12.57;7.57;;;;;;;21.50;27.27;101040.69;4476765;32;34641;-75
2022/03/27 11:19:49;;;;;;;15.68;7.10;;;;;;;21.60;27.04;101035.78;4478889;32;33974;-76
2022/03/27 11:22:48;;;;;;;10.80;6.62;;;;;;;21.88;25.96;101036.63;4479253;32;35552;-75
2022/03/27 11:25:45;;;;;;;11.80;6.93;;;;;;;22.33;25.17;101029.16;4476197;32;35026;-75
2022/03/27 11:28:43;;;;;;;13.82;7.28;;;;;;;22.39;25.41;101034.09;4473531;32;34711;-75
2022/03/27 11:31:33;;;;;;;13.23;7.45;;;;;;;20.58;28.07;101038.44;4473473;32;33809;-75
2022/03/27 11:34:20;;;;;;;14.57;7.75;;;;;;;18.32;30.42;101031.47;4461910;32;34689;-75
2022/03/27 11:37:10;;;;;;;17.55;7.87;;;;;;;19.24;29.26;101034.59;4471103;32;34462;-74
2022/03/27 11:39:57;;;;;;;12.02;7.03;;;;;;;17.78;31.62;101023.50;4479850;32;34901;-75
2022/03/27 11:42:43;;;;;;;10.50;6.85;;;;;;;17.03;33.00;101026.28;4479181;32;34010;-75
2022/03/27 11:45:37;;;;;;;16.05;7.70;;;;;;;17.53;33.42;101023.16;4476756;32;34594;-74
2022/03/27 11:48:23;;;;;;;13.50;7.62;;;;;;;16.00;35.19;101027.31;4471924;32;34840;-75
2022/03/27 11:51:15;;;;;;;14.82;7.68;;;;;;;17.68;31.07;101013.53;4470282;32;35513;-75
2022/03/27 11:54:02;;;;;;;13.05;7.80;;;;;;;18.32;30.93;101009.25;4472596;32;34127;-75
2022/03/27 11:56:56;;;;;;;16.40;7.87;;;;;;;17.87;31.92;101010.47;4474206;32;34389;-75
2022/03/27 11:59:48;;;;;;;14.05;7.30;;;;;;;17.07;33.06;101007.88;4474849;32;35969;-75
2022/03/27 12:02:42;;;;;;;12.17;7.60;;;;;;;17.55;32.49;101008.97;4473039;32;34852;-75
2022/03/27 12:05:34;;;;;;;12.82;6.22;;;;;;;18.07;31.98;100999.84;4478909;32;34146;-75
2022/03/27 12:08:31;;;;;;;12.40;6.72;;;;;;;18.40;31.33;100995.38;4471273;32;35035;-75
2022/03/27 12:11:20;;;;;;;12.10;5.93;;;;;;;18.97;30.36;100996.16;4468043;32;34785;-74
2022/03/27 12:14:11;;;;;;;9.82;6.15;;;;;;;19.57;30.35;101008.84;4469960;32;34214;-75
2022/03/27 12:16:58;;;;;;;13.20;6.72;;;;;;;20.44;28.36;100994.97;4478499;32;35662;-75
2022/03/27 12:20:08;;;;;;;12.43;7.37;;;;;;;20.54;28.10;100988.16;4478496;32;34662;-75
2022/03/27 12:22:56;;;;;;;9.70;6.23;;;;;;;21.42;26.75;100985.84;4478778;32;34999;-75
2022/03/27 12:25:42;;;;;;;14.45;7.18;;;;;;;21.62;26.41;100983.25;4470121;32;34614;-74
2022/03/27 12:31:34;;;;;;;13.52;7.60;;;;;;;21.22;26.45;100978.44;4471347;32;34713;-75
2022/03/27 12:34:21;;;;;;;17.50;8.07;;;;;;;21.44;26.16;100977.97;4476822;32;35493;-75
2022/03/27 12:37:18;;;;;;;14.60;7.47;;;;;;;19.02;28.82;100985.69;4455590;32;34517;-75
2022/03/27 12:40:06;;;;;;;14.15;7.95;;;;;;;19.24;29.50;100981.78;4477607;32;34728;-75
2022/03/27 12:42:54;;;;;;;14.07;7.15;;;;;;;19.90;27.80;100966.41;4465859;32;35248;-75
2022/03/27 12:45:41;;;;;;;17.92;8.15;;;;;;;19.86;28.15;100965.47;4480376;32;34537;-74
2022/03/27 12:48:28;;;;;;;11.30;6.60;;;;;;;17.42;31.82;100960.88;4480384;32;34465;-74
2022/03/27 12:51:14;;;;;;;16.95;7.32;;;;;;;18.74;30.71;100954.78;4477686;32;34214;-74
2022/03/27 12:54:01;;;;;;;12.95;7.12;;;;;;;19.94;28.59;100959.81;4480163;32;35615;-74
2022/03/27 12:56:55;;;;;;;14.77;7.18;;;;;;;19.40;28.92;100951.41;4479731;32;35035;-75
2022/03/27 12:59:42;;;;;;;15.65;7.47;;;;;;;19.81;28.30;100951.75;4460388;32;34450;-74
2022/03/27 13:02:30;;;;;;;11.70;7.03;;;;;;;19.50;28.76;100947.44;4460715;32;34305;-74
2022/03/27 13:05:27;;;;;;;11.85;7.40;;;;;;;19.62;29.86;100949.47;4480384;32;35521;-74